sensor_id;sensor_type;location;lat;lon;timestamp;P1;durP1;ratioP1;P2;durP2;ratioP2
66628;SDS011;53532;53.084;6.352;2023-02-02T00:00:17;30.63;;;5.40;;
66628;SDS011;53532;53.084;6.352;2023-02-02T00:02:43;31.37;;;5.60;;
66628;SDS011;53532;53.084;6.352;2023-02-02T00:05:09;27.27;;;5.43;;
66628;SDS011;53532;53.084;6.352;2023-02-02T00:07:36;31.03;;;6.30;;
66628;SDS011;53532;53.084;6.352;2023-02-02T00:10:02;25.83;;;5.23;;
66628;SDS011;53532;53.084;6.352;2023-02-02T00:12:28;43.13;;;5.77;;
66628;SDS011;53532;53.084;6.352;2023-02-02T00:14:56;25.67;;;4.40;;
66628;SDS011;53532;53.084;6.352;2023-02-02T00:17:22;28.70;;;5.73;;
66628;SDS011;53532;53.084;6.352;2023-02-02T00:19:48;28.30;;;5.67;;
66628;SDS011;53532;53.084;6.352;2023-02-02T00:22:14;30.90;;;5.90;;
66628;SDS011;53532;53.084;6.352;2023-02-02T00:24:41;28.43;;;5.40;;
66628;SDS011;53532;53.084;6.352;2023-02-02T00:27:07;32.40;;;6.23;;
66628;SDS011;53532;53.084;6.352;2023-02-02T00:29:34;30.37;;;5.13;;
66628;SDS011;53532;53.084;6.352;2023-02-02T00:32:01;28.10;;;4.97;;
66628;SDS011;53532;53.084;6.352;2023-02-02T00:34:27;38.37;;;6.03;;
66628;SDS011;53532;53.084;6.352;2023-02-02T00:36:53;23.93;;;4.90;;
66628;SDS011;53532;53.084;6.352;2023-02-02T00:39:21;27.95;;;5.13;;
66628;SDS011;53532;53.084;6.352;2023-02-02T00:41:49;28.47;;;5.43;;
66628;SDS011;53532;53.084;6.352;2023-02-02T00:44:15;34.53;;;5.57;;
66628;SDS011;53532;53.084;6.352;2023-02-02T00:47:02;33.03;;;5.47;;
66628;SDS011;53532;53.084;6.352;2023-02-02T00:49:28;27.60;;;4.60;;
66628;SDS011;53532;53.084;6.352;2023-02-02T00:51:54;32.78;;;5.95;;
66628;SDS011;53532;53.084;6.352;2023-02-02T00:54:20;30.23;;;5.18;;
66628;SDS011;53532;53.084;6.352;2023-02-02T00:56:47;26.63;;;4.80;;
66628;SDS011;53532;53.084;6.352;2023-02-02T00:59:13;31.53;;;5.30;;
66628;SDS011;53532;53.084;6.352;2023-02-02T01:01:39;35.08;;;5.10;;
66628;SDS011;53532;53.084;6.352;2023-02-02T01:04:07;29.10;;;5.77;;
66628;SDS011;53532;53.084;6.352;2023-02-02T01:06:33;24.23;;;4.60;;
66628;SDS011;53532;53.084;6.352;2023-02-02T01:08:59;26.70;;;5.00;;
66628;SDS011;53532;53.084;6.352;2023-02-02T01:11:25;28.33;;;5.17;;
66628;SDS011;53532;53.084;6.352;2023-02-02T01:13:51;24.48;;;4.93;;
66628;SDS011;53532;53.084;6.352;2023-02-02T01:16:18;29.40;;;4.95;;
66628;SDS011;53532;53.084;6.352;2023-02-02T01:18:46;31.70;;;5.20;;
66628;SDS011;53532;53.084;6.352;2023-02-02T01:21:14;23.73;;;4.40;;
66628;SDS011;53532;53.084;6.352;2023-02-02T01:23:40;29.23;;;4.73;;
66628;SDS011;53532;53.084;6.352;2023-02-02T01:26:06;28.98;;;5.00;;
66628;SDS011;53532;53.084;6.352;2023-02-02T01:28:33;20.23;;;4.35;;
66628;SDS011;53532;53.084;6.352;2023-02-02T01:31:04;29.83;;;4.85;;
66628;SDS011;53532;53.084;6.352;2023-02-02T01:33:30;21.33;;;4.45;;
66628;SDS011;53532;53.084;6.352;2023-02-02T01:35:57;35.55;;;5.78;;
66628;SDS011;53532;53.084;6.352;2023-02-02T01:38:24;26.08;;;4.57;;
66628;SDS011;53532;53.084;6.352;2023-02-02T01:40:51;27.02;;;5.15;;
66628;SDS011;53532;53.084;6.352;2023-02-02T01:43:22;26.10;;;4.72;;
66628;SDS011;53532;53.084;6.352;2023-02-02T01:45:49;28.58;;;4.82;;
66628;SDS011;53532;53.084;6.352;2023-02-02T01:48:15;25.92;;;4.90;;
66628;SDS011;53532;53.084;6.352;2023-02-02T01:50:41;30.42;;;4.93;;
66628;SDS011;53532;53.084;6.352;2023-02-02T01:53:08;29.70;;;4.70;;
66628;SDS011;53532;53.084;6.352;2023-02-02T01:55:36;29.30;;;4.78;;
66628;SDS011;53532;53.084;6.352;2023-02-02T01:58:04;29.60;;;5.00;;
66628;SDS011;53532;53.084;6.352;2023-02-02T02:00:31;26.77;;;5.20;;
66628;SDS011;53532;53.084;6.352;2023-02-02T02:02:58;27.15;;;4.63;;
66628;SDS011;53532;53.084;6.352;2023-02-02T02:05:27;28.95;;;4.97;;
66628;SDS011;53532;53.084;6.352;2023-02-02T02:07:55;26.02;;;4.63;;
66628;SDS011;53532;53.084;6.352;2023-02-02T02:10:25;25.95;;;4.88;;
66628;SDS011;53532;53.084;6.352;2023-02-02T02:12:53;25.60;;;4.85;;
66628;SDS011;53532;53.084;6.352;2023-02-02T02:15:19;33.13;;;5.55;;
66628;SDS011;53532;53.084;6.352;2023-02-02T02:18:09;26.10;;;4.40;;
66628;SDS011;53532;53.084;6.352;2023-02-02T02:20:44;31.30;;;5.47;;
66628;SDS011;53532;53.084;6.352;2023-02-02T02:23:43;33.38;;;5.20;;
66628;SDS011;53532;53.084;6.352;2023-02-02T02:26:45;25.48;;;4.50;;
66628;SDS011;53532;53.084;6.352;2023-02-02T02:32:23;32.92;;;5.00;;
66628;SDS011;53532;53.084;6.352;2023-02-02T02:34:54;29.05;;;4.88;;
66628;SDS011;53532;53.084;6.352;2023-02-02T02:37:28;29.65;;;4.47;;
66628;SDS011;53532;53.084;6.352;2023-02-02T02:39:56;26.30;;;4.40;;
66628;SDS011;53532;53.084;6.352;2023-02-02T02:42:24;28.80;;;4.95;;
66628;SDS011;53532;53.084;6.352;2023-02-02T02:44:50;26.38;;;4.78;;
66628;SDS011;53532;53.084;6.352;2023-02-02T02:47:18;29.35;;;4.85;;
66628;SDS011;53532;53.084;6.352;2023-02-02T02:49:46;30.88;;;4.78;;
66628;SDS011;53532;53.084;6.352;2023-02-02T02:52:13;21.88;;;4.03;;
66628;SDS011;53532;53.084;6.352;2023-02-02T02:54:40;22.95;;;4.45;;
66628;SDS011;53532;53.084;6.352;2023-02-02T02:57:17;29.00;;;4.38;;
66628;SDS011;53532;53.084;6.352;2023-02-02T02:59:48;28.55;;;4.90;;
66628;SDS011;53532;53.084;6.352;2023-02-02T03:02:21;22.88;;;5.03;;
66628;SDS011;53532;53.084;6.352;2023-02-02T03:04:54;23.60;;;4.28;;
66628;SDS011;53532;53.084;6.352;2023-02-02T03:07:22;17.17;;;3.53;;
66628;SDS011;53532;53.084;6.352;2023-02-02T03:09:51;15.27;;;2.60;;
66628;SDS011;53532;53.084;6.352;2023-02-02T03:12:17;11.70;;;2.92;;
66628;SDS011;53532;53.084;6.352;2023-02-02T03:14:44;9.85;;;1.70;;
66628;SDS011;53532;53.084;6.352;2023-02-02T03:17:10;7.97;;;1.90;;
66628;SDS011;53532;53.084;6.352;2023-02-02T03:19:36;13.18;;;2.13;;
66628;SDS011;53532;53.084;6.352;2023-02-02T03:22:04;9.70;;;1.60;;
66628;SDS011;53532;53.084;6.352;2023-02-02T03:24:30;5.35;;;1.17;;
66628;SDS011;53532;53.084;6.352;2023-02-02T03:26:56;6.28;;;1.30;;
66628;SDS011;53532;53.084;6.352;2023-02-02T03:29:22;7.63;;;1.50;;
66628;SDS011;53532;53.084;6.352;2023-02-02T03:31:48;6.90;;;1.60;;
66628;SDS011;53532;53.084;6.352;2023-02-02T03:34:15;7.47;;;1.65;;
66628;SDS011;53532;53.084;6.352;2023-02-02T03:36:41;8.13;;;1.52;;
66628;SDS011;53532;53.084;6.352;2023-02-02T03:39:08;9.20;;;1.80;;
66628;SDS011;53532;53.084;6.352;2023-02-02T03:41:34;8.35;;;1.55;;
66628;SDS011;53532;53.084;6.352;2023-02-02T03:44:01;10.63;;;1.80;;
66628;SDS011;53532;53.084;6.352;2023-02-02T03:46:27;9.77;;;1.70;;
66628;SDS011;53532;53.084;6.352;2023-02-02T03:48:53;12.85;;;2.10;;
66628;SDS011;53532;53.084;6.352;2023-02-02T03:51:19;11.07;;;1.83;;
66628;SDS011;53532;53.084;6.352;2023-02-02T03:53:45;10.93;;;1.52;;
66628;SDS011;53532;53.084;6.352;2023-02-02T03:56:13;9.38;;;2.08;;
66628;SDS011;53532;53.084;6.352;2023-02-02T03:58:39;10.52;;;1.63;;
66628;SDS011;53532;53.084;6.352;2023-02-02T04:01:07;8.57;;;1.52;;
66628;SDS011;53532;53.084;6.352;2023-02-02T04:03:33;12.90;;;1.60;;
66628;SDS011;53532;53.084;6.352;2023-02-02T04:05:59;10.20;;;1.77;;
66628;SDS011;53532;53.084;6.352;2023-02-02T04:08:25;9.48;;;1.60;;
66628;SDS011;53532;53.084;6.352;2023-02-02T04:10:52;8.15;;;1.65;;
66628;SDS011;53532;53.084;6.352;2023-02-02T04:13:20;6.80;;;1.50;;
66628;SDS011;53532;53.084;6.352;2023-02-02T04:15:46;8.40;;;1.45;;
66628;SDS011;53532;53.084;6.352;2023-02-02T04:18:12;9.73;;;1.25;;
66628;SDS011;53532;53.084;6.352;2023-02-02T04:20:38;9.43;;;1.23;;
66628;SDS011;53532;53.084;6.352;2023-02-02T04:23:04;7.97;;;1.83;;
66628;SDS011;53532;53.084;6.352;2023-02-02T04:25:30;10.05;;;1.75;;
66628;SDS011;53532;53.084;6.352;2023-02-02T04:27:57;11.32;;;1.80;;
66628;SDS011;53532;53.084;6.352;2023-02-02T04:30:24;10.27;;;1.60;;
66628;SDS011;53532;53.084;6.352;2023-02-02T04:32:50;9.48;;;1.83;;
66628;SDS011;53532;53.084;6.352;2023-02-02T04:35:16;9.25;;;1.80;;
66628;SDS011;53532;53.084;6.352;2023-02-02T04:37:42;8.07;;;1.80;;
66628;SDS011;53532;53.084;6.352;2023-02-02T04:40:09;10.82;;;1.80;;
66628;SDS011;53532;53.084;6.352;2023-02-02T04:42:35;10.68;;;2.00;;
66628;SDS011;53532;53.084;6.352;2023-02-02T04:45:02;9.52;;;2.00;;
66628;SDS011;53532;53.084;6.352;2023-02-02T04:47:30;9.75;;;1.70;;
66628;SDS011;53532;53.084;6.352;2023-02-02T04:49:56;10.43;;;1.70;;
66628;SDS011;53532;53.084;6.352;2023-02-02T04:52:22;12.23;;;1.70;;
66628;SDS011;53532;53.084;6.352;2023-02-02T04:54:48;12.00;;;2.00;;
66628;SDS011;53532;53.084;6.352;2023-02-02T04:57:14;10.15;;;1.70;;
66628;SDS011;53532;53.084;6.352;2023-02-02T04:59:41;10.70;;;1.88;;
66628;SDS011;53532;53.084;6.352;2023-02-02T05:02:07;10.85;;;1.50;;
66628;SDS011;53532;53.084;6.352;2023-02-02T05:04:35;8.23;;;1.70;;
66628;SDS011;53532;53.084;6.352;2023-02-02T05:07:01;7.75;;;2.08;;
66628;SDS011;53532;53.084;6.352;2023-02-02T05:09:28;8.82;;;1.70;;
66628;SDS011;53532;53.084;6.352;2023-02-02T05:11:54;10.65;;;1.60;;
66628;SDS011;53532;53.084;6.352;2023-02-02T05:14:20;13.50;;;2.13;;
66628;SDS011;53532;53.084;6.352;2023-02-02T05:16:46;8.95;;;1.58;;
66628;SDS011;53532;53.084;6.352;2023-02-02T05:19:14;11.20;;;2.15;;
66628;SDS011;53532;53.084;6.352;2023-02-02T05:21:42;9.88;;;1.70;;
66628;SDS011;53532;53.084;6.352;2023-02-02T05:24:09;10.68;;;1.98;;
66628;SDS011;53532;53.084;6.352;2023-02-02T05:26:35;11.88;;;2.00;;
66628;SDS011;53532;53.084;6.352;2023-02-02T05:29:02;11.30;;;2.00;;
66628;SDS011;53532;53.084;6.352;2023-02-02T05:31:28;13.93;;;2.05;;
66628;SDS011;53532;53.084;6.352;2023-02-02T05:33:56;11.05;;;2.00;;
66628;SDS011;53532;53.084;6.352;2023-02-02T05:36:22;13.88;;;2.35;;
66628;SDS011;53532;53.084;6.352;2023-02-02T05:38:49;13.70;;;1.80;;
66628;SDS011;53532;53.084;6.352;2023-02-02T05:41:15;10.98;;;1.92;;
66628;SDS011;53532;53.084;6.352;2023-02-02T05:43:42;9.60;;;1.98;;
66628;SDS011;53532;53.084;6.352;2023-02-02T05:46:08;14.65;;;2.30;;
66628;SDS011;53532;53.084;6.352;2023-02-02T05:48:34;12.02;;;2.30;;
66628;SDS011;53532;53.084;6.352;2023-02-02T05:51:01;11.98;;;2.08;;
66628;SDS011;53532;53.084;6.352;2023-02-02T05:53:28;12.82;;;2.15;;
66628;SDS011;53532;53.084;6.352;2023-02-02T05:55:56;10.55;;;2.03;;
66628;SDS011;53532;53.084;6.352;2023-02-02T05:58:22;14.65;;;2.70;;
66628;SDS011;53532;53.084;6.352;2023-02-02T06:00:48;14.40;;;2.28;;
66628;SDS011;53532;53.084;6.352;2023-02-02T06:03:14;13.33;;;2.10;;
66628;SDS011;53532;53.084;6.352;2023-02-02T06:05:41;14.95;;;2.10;;
66628;SDS011;53532;53.084;6.352;2023-02-02T06:08:07;17.10;;;2.60;;
66628;SDS011;53532;53.084;6.352;2023-02-02T06:10:33;15.00;;;2.53;;
66628;SDS011;53532;53.084;6.352;2023-02-02T06:13:00;17.70;;;3.05;;
66628;SDS011;53532;53.084;6.352;2023-02-02T06:15:26;14.32;;;2.53;;
66628;SDS011;53532;53.084;6.352;2023-02-02T06:17:53;13.43;;;2.60;;
66628;SDS011;53532;53.084;6.352;2023-02-02T06:20:19;14.05;;;2.60;;
66628;SDS011;53532;53.084;6.352;2023-02-02T06:22:45;13.05;;;2.28;;
66628;SDS011;53532;53.084;6.352;2023-02-02T06:25:12;13.23;;;2.08;;
66628;SDS011;53532;53.084;6.352;2023-02-02T06:27:38;11.20;;;2.35;;
66628;SDS011;53532;53.084;6.352;2023-02-02T06:30:07;10.43;;;1.98;;
66628;SDS011;53532;53.084;6.352;2023-02-02T06:32:33;11.65;;;2.10;;
66628;SDS011;53532;53.084;6.352;2023-02-02T06:34:59;11.18;;;2.00;;
66628;SDS011;53532;53.084;6.352;2023-02-02T06:37:25;9.48;;;2.00;;
66628;SDS011;53532;53.084;6.352;2023-02-02T06:39:51;12.90;;;2.35;;
66628;SDS011;53532;53.084;6.352;2023-02-02T06:42:17;11.95;;;2.63;;
66628;SDS011;53532;53.084;6.352;2023-02-02T06:44:44;11.68;;;2.53;;
66628;SDS011;53532;53.084;6.352;2023-02-02T06:47:11;10.27;;;2.15;;
66628;SDS011;53532;53.084;6.352;2023-02-02T06:49:37;11.02;;;2.10;;
66628;SDS011;53532;53.084;6.352;2023-02-02T06:52:03;13.85;;;2.70;;
66628;SDS011;53532;53.084;6.352;2023-02-02T06:54:30;10.70;;;2.20;;
66628;SDS011;53532;53.084;6.352;2023-02-02T06:56:56;9.05;;;2.40;;
66628;SDS011;53532;53.084;6.352;2023-02-02T06:59:22;11.27;;;2.38;;
66628;SDS011;53532;53.084;6.352;2023-02-02T07:01:48;11.02;;;2.58;;
66628;SDS011;53532;53.084;6.352;2023-02-02T07:04:16;10.52;;;2.78;;
66628;SDS011;53532;53.084;6.352;2023-02-02T07:06:42;13.98;;;3.50;;
66628;SDS011;53532;53.084;6.352;2023-02-02T07:09:09;15.95;;;3.70;;
66628;SDS011;53532;53.084;6.352;2023-02-02T07:11:35;12.70;;;3.83;;
66628;SDS011;53532;53.084;6.352;2023-02-02T07:14:01;15.38;;;3.63;;
66628;SDS011;53532;53.084;6.352;2023-02-02T07:16:28;14.23;;;3.80;;
66628;SDS011;53532;53.084;6.352;2023-02-02T07:18:54;10.75;;;3.38;;
66628;SDS011;53532;53.084;6.352;2023-02-02T07:21:22;12.10;;;3.38;;
66628;SDS011;53532;53.084;6.352;2023-02-02T07:23:49;13.30;;;3.97;;
66628;SDS011;53532;53.084;6.352;2023-02-02T07:26:16;16.02;;;4.03;;
66628;SDS011;53532;53.084;6.352;2023-02-02T07:28:43;15.63;;;4.18;;
66628;SDS011;53532;53.084;6.352;2023-02-02T07:31:13;15.73;;;4.63;;
66628;SDS011;53532;53.084;6.352;2023-02-02T07:33:40;15.40;;;5.25;;
66628;SDS011;53532;53.084;6.352;2023-02-02T07:36:06;14.23;;;5.38;;
66628;SDS011;53532;53.084;6.352;2023-02-02T07:38:34;20.42;;;5.82;;
66628;SDS011;53532;53.084;6.352;2023-02-02T07:41:00;15.10;;;5.68;;
66628;SDS011;53532;53.084;6.352;2023-02-02T07:43:26;17.05;;;5.93;;
66628;SDS011;53532;53.084;6.352;2023-02-02T07:45:53;19.40;;;6.13;;
66628;SDS011;53532;53.084;6.352;2023-02-02T07:48:19;17.77;;;6.07;;
66628;SDS011;53532;53.084;6.352;2023-02-02T07:50:45;17.63;;;5.90;;
66628;SDS011;53532;53.084;6.352;2023-02-02T07:53:11;16.75;;;6.18;;
66628;SDS011;53532;53.084;6.352;2023-02-02T07:55:40;16.58;;;6.18;;
66628;SDS011;53532;53.084;6.352;2023-02-02T07:58:06;17.40;;;5.97;;
66628;SDS011;53532;53.084;6.352;2023-02-02T08:00:34;16.30;;;6.25;;
66628;SDS011;53532;53.084;6.352;2023-02-02T08:03:00;15.70;;;5.80;;
66628;SDS011;53532;53.084;6.352;2023-02-02T08:05:26;17.50;;;5.75;;
66628;SDS011;53532;53.084;6.352;2023-02-02T08:07:52;17.67;;;5.65;;
66628;SDS011;53532;53.084;6.352;2023-02-02T08:10:18;15.60;;;5.05;;
66628;SDS011;53532;53.084;6.352;2023-02-02T08:12:46;16.27;;;5.70;;
66628;SDS011;53532;53.084;6.352;2023-02-02T08:15:12;18.30;;;5.28;;
66628;SDS011;53532;53.084;6.352;2023-02-02T08:17:38;16.60;;;5.20;;
66628;SDS011;53532;53.084;6.352;2023-02-02T08:20:05;18.15;;;5.32;;
66628;SDS011;53532;53.084;6.352;2023-02-02T08:22:32;16.13;;;5.22;;
66628;SDS011;53532;53.084;6.352;2023-02-02T08:24:58;15.70;;;6.05;;
66628;SDS011;53532;53.084;6.352;2023-02-02T08:27:24;19.75;;;6.00;;
66628;SDS011;53532;53.084;6.352;2023-02-02T08:29:51;17.35;;;6.22;;
66628;SDS011;53532;53.084;6.352;2023-02-02T08:32:17;16.23;;;5.57;;
66628;SDS011;53532;53.084;6.352;2023-02-02T08:34:44;17.15;;;5.55;;
66628;SDS011;53532;53.084;6.352;2023-02-02T08:37:10;15.05;;;5.28;;
66628;SDS011;53532;53.084;6.352;2023-02-02T08:39:36;16.05;;;5.70;;
66628;SDS011;53532;53.084;6.352;2023-02-02T08:42:02;18.15;;;5.82;;
66628;SDS011;53532;53.084;6.352;2023-02-02T08:44:28;13.77;;;5.20;;
66628;SDS011;53532;53.084;6.352;2023-02-02T08:46:56;17.02;;;5.68;;
66628;SDS011;53532;53.084;6.352;2023-02-02T08:49:22;17.17;;;6.45;;
66628;SDS011;53532;53.084;6.352;2023-02-02T08:51:49;16.85;;;6.00;;
66628;SDS011;53532;53.084;6.352;2023-02-02T08:54:15;17.05;;;6.15;;
66628;SDS011;53532;53.084;6.352;2023-02-02T08:56:41;19.35;;;6.32;;
66628;SDS011;53532;53.084;6.352;2023-02-02T08:59:07;15.77;;;6.13;;
66628;SDS011;53532;53.084;6.352;2023-02-02T09:01:33;19.65;;;7.00;;
66628;SDS011;53532;53.084;6.352;2023-02-02T09:04:02;17.42;;;6.40;;
66628;SDS011;53532;53.084;6.352;2023-02-02T09:06:30;13.43;;;5.95;;
66628;SDS011;53532;53.084;6.352;2023-02-02T09:08:56;16.27;;;6.72;;
66628;SDS011;53532;53.084;6.352;2023-02-02T09:11:22;19.02;;;7.70;;
66628;SDS011;53532;53.084;6.352;2023-02-02T09:13:52;16.67;;;5.88;;
66628;SDS011;53532;53.084;6.352;2023-02-02T09:16:18;11.35;;;4.95;;
66628;SDS011;53532;53.084;6.352;2023-02-02T09:18:44;15.95;;;5.80;;
66628;SDS011;53532;53.084;6.352;2023-02-02T09:21:12;14.27;;;6.45;;
66628;SDS011;53532;53.084;6.352;2023-02-02T09:23:40;16.48;;;6.53;;
66628;SDS011;53532;53.084;6.352;2023-02-02T09:26:07;13.35;;;5.38;;
66628;SDS011;53532;53.084;6.352;2023-02-02T09:28:34;17.05;;;6.53;;
66628;SDS011;53532;53.084;6.352;2023-02-02T09:31:00;14.05;;;5.78;;
66628;SDS011;53532;53.084;6.352;2023-02-02T09:33:26;15.00;;;6.07;;
66628;SDS011;53532;53.084;6.352;2023-02-02T09:35:53;13.90;;;5.75;;
66628;SDS011;53532;53.084;6.352;2023-02-02T09:38:20;13.80;;;5.75;;
66628;SDS011;53532;53.084;6.352;2023-02-02T09:40:46;14.85;;;5.80;;
66628;SDS011;53532;53.084;6.352;2023-02-02T09:43:16;12.40;;;5.63;;
66628;SDS011;53532;53.084;6.352;2023-02-02T09:45:51;10.55;;;4.82;;
66628;SDS011;53532;53.084;6.352;2023-02-02T09:48:22;12.65;;;5.60;;
66628;SDS011;53532;53.084;6.352;2023-02-02T09:50:51;12.98;;;5.38;;
66628;SDS011;53532;53.084;6.352;2023-02-02T09:53:21;12.40;;;5.72;;
66628;SDS011;53532;53.084;6.352;2023-02-02T09:55:49;12.57;;;6.00;;
66628;SDS011;53532;53.084;6.352;2023-02-02T09:58:18;11.38;;;4.78;;
66628;SDS011;53532;53.084;6.352;2023-02-02T10:00:46;9.68;;;3.88;;
66628;SDS011;53532;53.084;6.352;2023-02-02T10:03:14;12.05;;;4.32;;
66628;SDS011;53532;53.084;6.352;2023-02-02T10:05:45;10.05;;;4.60;;
66628;SDS011;53532;53.084;6.352;2023-02-02T10:08:13;11.27;;;4.60;;
66628;SDS011;53532;53.084;6.352;2023-02-02T10:10:43;10.88;;;4.85;;
66628;SDS011;53532;53.084;6.352;2023-02-02T10:13:12;10.50;;;3.97;;
66628;SDS011;53532;53.084;6.352;2023-02-02T10:15:41;10.73;;;4.25;;
66628;SDS011;53532;53.084;6.352;2023-02-02T10:18:10;10.57;;;4.63;;
66628;SDS011;53532;53.084;6.352;2023-02-02T10:20:41;10.80;;;4.35;;
66628;SDS011;53532;53.084;6.352;2023-02-02T10:23:12;10.63;;;4.78;;
66628;SDS011;53532;53.084;6.352;2023-02-02T10:25:41;11.60;;;5.03;;
66628;SDS011;53532;53.084;6.352;2023-02-02T10:28:15;9.88;;;4.00;;
66628;SDS011;53532;53.084;6.352;2023-02-02T10:30:43;10.15;;;4.47;;
66628;SDS011;53532;53.084;6.352;2023-02-02T10:33:12;9.43;;;4.07;;
66628;SDS011;53532;53.084;6.352;2023-02-02T10:35:41;9.43;;;3.55;;
66628;SDS011;53532;53.084;6.352;2023-02-02T10:38:12;9.63;;;3.65;;
66628;SDS011;53532;53.084;6.352;2023-02-02T10:40:43;9.23;;;3.35;;
66628;SDS011;53532;53.084;6.352;2023-02-02T10:43:17;9.85;;;3.60;;
66628;SDS011;53532;53.084;6.352;2023-02-02T10:46:04;10.15;;;4.00;;
66628;SDS011;53532;53.084;6.352;2023-02-02T10:48:34;10.38;;;4.03;;
66628;SDS011;53532;53.084;6.352;2023-02-02T10:51:01;9.23;;;3.78;;
66628;SDS011;53532;53.084;6.352;2023-02-02T10:53:29;9.75;;;3.75;;
66628;SDS011;53532;53.084;6.352;2023-02-02T10:55:57;10.80;;;4.00;;
66628;SDS011;53532;53.084;6.352;2023-02-02T10:58:26;8.57;;;3.63;;
66628;SDS011;53532;53.084;6.352;2023-02-02T11:00:54;8.82;;;4.07;;
66628;SDS011;53532;53.084;6.352;2023-02-02T11:03:22;9.07;;;3.80;;
66628;SDS011;53532;53.084;6.352;2023-02-02T11:05:49;10.70;;;4.13;;
66628;SDS011;53532;53.084;6.352;2023-02-02T11:08:35;9.63;;;3.97;;
66628;SDS011;53532;53.084;6.352;2023-02-02T11:11:07;9.00;;;3.63;;
66628;SDS011;53532;53.084;6.352;2023-02-02T11:13:38;9.85;;;3.33;;
66628;SDS011;53532;53.084;6.352;2023-02-02T11:16:22;10.85;;;3.03;;
66628;SDS011;53532;53.084;6.352;2023-02-02T11:18:48;7.55;;;2.70;;
66628;SDS011;53532;53.084;6.352;2023-02-02T11:21:16;8.32;;;2.50;;
66628;SDS011;53532;53.084;6.352;2023-02-02T11:23:49;8.63;;;2.35;;
66628;SDS011;53532;53.084;6.352;2023-02-02T11:26:16;6.85;;;2.00;;
66628;SDS011;53532;53.084;6.352;2023-02-02T11:28:43;6.82;;;2.30;;
66628;SDS011;53532;53.084;6.352;2023-02-02T11:31:12;5.20;;;2.00;;
66628;SDS011;53532;53.084;6.352;2023-02-02T11:33:38;7.68;;;2.40;;
66628;SDS011;53532;53.084;6.352;2023-02-02T11:36:06;6.65;;;1.80;;
66628;SDS011;53532;53.084;6.352;2023-02-02T11:38:42;7.45;;;2.13;;
66628;SDS011;53532;53.084;6.352;2023-02-02T11:41:08;6.28;;;2.28;;
66628;SDS011;53532;53.084;6.352;2023-02-02T11:43:38;9.38;;;2.97;;
66628;SDS011;53532;53.084;6.352;2023-02-02T11:46:16;10.32;;;2.38;;
66628;SDS011;53532;53.084;6.352;2023-02-02T11:48:46;6.80;;;1.90;;
66628;SDS011;53532;53.084;6.352;2023-02-02T11:51:18;9.85;;;2.22;;
66628;SDS011;53532;53.084;6.352;2023-02-02T11:53:46;6.00;;;2.10;;
66628;SDS011;53532;53.084;6.352;2023-02-02T11:56:16;9.23;;;2.40;;
66628;SDS011;53532;53.084;6.352;2023-02-02T11:58:44;8.13;;;2.28;;
66628;SDS011;53532;53.084;6.352;2023-02-02T12:01:21;9.20;;;2.55;;
66628;SDS011;53532;53.084;6.352;2023-02-02T12:03:47;9.95;;;2.47;;
66628;SDS011;53532;53.084;6.352;2023-02-02T12:06:18;9.10;;;2.70;;
66628;SDS011;53532;53.084;6.352;2023-02-02T12:08:44;8.05;;;2.92;;
66628;SDS011;53532;53.084;6.352;2023-02-02T12:11:12;9.57;;;2.97;;
66628;SDS011;53532;53.084;6.352;2023-02-02T12:13:45;10.20;;;3.45;;
66628;SDS011;53532;53.084;6.352;2023-02-02T12:16:21;8.30;;;3.00;;
66628;SDS011;53532;53.084;6.352;2023-02-02T12:18:55;8.85;;;3.00;;
66628;SDS011;53532;53.084;6.352;2023-02-02T12:21:27;9.68;;;3.10;;
66628;SDS011;53532;53.084;6.352;2023-02-02T12:24:02;8.73;;;3.35;;
66628;SDS011;53532;53.084;6.352;2023-02-02T12:26:30;6.95;;;3.30;;
66628;SDS011;53532;53.084;6.352;2023-02-02T12:29:03;9.15;;;3.38;;
66628;SDS011;53532;53.084;6.352;2023-02-02T12:31:39;8.40;;;4.15;;
66628;SDS011;53532;53.084;6.352;2023-02-02T12:34:10;8.10;;;4.00;;
66628;SDS011;53532;53.084;6.352;2023-02-02T12:36:42;8.68;;;3.58;;
66628;SDS011;53532;53.084;6.352;2023-02-02T12:39:21;9.20;;;3.38;;
66628;SDS011;53532;53.084;6.352;2023-02-02T12:42:02;9.65;;;3.35;;
66628;SDS011;53532;53.084;6.352;2023-02-02T12:44:31;6.75;;;3.33;;
66628;SDS011;53532;53.084;6.352;2023-02-02T12:47:10;6.00;;;2.42;;
66628;SDS011;53532;53.084;6.352;2023-02-02T12:52:29;8.55;;;2.70;;
66628;SDS011;53532;53.084;6.352;2023-02-02T12:55:03;5.82;;;2.65;;
66628;SDS011;53532;53.084;6.352;2023-02-02T12:57:36;7.78;;;2.38;;
66628;SDS011;53532;53.084;6.352;2023-02-02T13:00:21;6.05;;;2.42;;
66628;SDS011;53532;53.084;6.352;2023-02-02T13:02:55;7.65;;;2.75;;
66628;SDS011;53532;53.084;6.352;2023-02-02T13:05:28;7.50;;;2.88;;
66628;SDS011;53532;53.084;6.352;2023-02-02T13:07:59;9.30;;;2.97;;
66628;SDS011;53532;53.084;6.352;2023-02-02T13:10:27;8.05;;;3.40;;
66628;SDS011;53532;53.084;6.352;2023-02-02T13:12:55;9.30;;;3.70;;
66628;SDS011;53532;53.084;6.352;2023-02-02T13:15:22;9.85;;;4.47;;
66628;SDS011;53532;53.084;6.352;2023-02-02T13:17:53;9.13;;;4.32;;
66628;SDS011;53532;53.084;6.352;2023-02-02T13:20:24;7.78;;;3.85;;
66628;SDS011;53532;53.084;6.352;2023-02-02T13:22:54;11.52;;;4.50;;
66628;SDS011;53532;53.084;6.352;2023-02-02T13:25:22;8.30;;;4.30;;
66628;SDS011;53532;53.084;6.352;2023-02-02T13:27:49;8.00;;;4.30;;
66628;SDS011;53532;53.084;6.352;2023-02-02T13:30:21;13.65;;;4.47;;
66628;SDS011;53532;53.084;6.352;2023-02-02T13:32:50;8.75;;;3.45;;
66628;SDS011;53532;53.084;6.352;2023-02-02T13:35:18;10.23;;;3.95;;
66628;SDS011;53532;53.084;6.352;2023-02-02T13:37:48;11.18;;;4.15;;
66628;SDS011;53532;53.084;6.352;2023-02-02T13:40:19;10.70;;;4.40;;
66628;SDS011;53532;53.084;6.352;2023-02-02T13:42:46;11.02;;;4.97;;
66628;SDS011;53532;53.084;6.352;2023-02-02T13:45:18;11.65;;;5.78;;
66628;SDS011;53532;53.084;6.352;2023-02-02T13:47:51;11.45;;;5.63;;
66628;SDS011;53532;53.084;6.352;2023-02-02T13:50:18;14.50;;;5.70;;
66628;SDS011;53532;53.084;6.352;2023-02-02T13:55:42;11.23;;;6.47;;
66628;SDS011;53532;53.084;6.352;2023-02-02T13:58:15;16.83;;;7.28;;
66628;SDS011;53532;53.084;6.352;2023-02-02T14:00:46;18.30;;;8.20;;
66628;SDS011;53532;53.084;6.352;2023-02-02T14:03:24;16.20;;;8.07;;
66628;SDS011;53532;53.084;6.352;2023-02-02T14:06:00;19.45;;;9.00;;
66628;SDS011;53532;53.084;6.352;2023-02-02T14:08:27;22.13;;;9.60;;
66628;SDS011;53532;53.084;6.352;2023-02-02T14:10:57;25.15;;;10.75;;
66628;SDS011;53532;53.084;6.352;2023-02-02T14:13:25;29.77;;;11.00;;
66628;SDS011;53532;53.084;6.352;2023-02-02T14:16:18;29.75;;;11.15;;
66628;SDS011;53532;53.084;6.352;2023-02-02T14:18:50;31.27;;;11.90;;
66628;SDS011;53532;53.084;6.352;2023-02-02T14:23:59;34.78;;;12.48;;
66628;SDS011;53532;53.084;6.352;2023-02-02T14:26:41;27.30;;;13.13;;
66628;SDS011;53532;53.084;6.352;2023-02-02T14:31:56;38.97;;;14.00;;
66628;SDS011;53532;53.084;6.352;2023-02-02T14:34:26;43.47;;;14.52;;
66628;SDS011;53532;53.084;6.352;2023-02-02T14:36:57;39.60;;;16.10;;
66628;SDS011;53532;53.084;6.352;2023-02-02T14:39:23;38.70;;;15.90;;
66628;SDS011;53532;53.084;6.352;2023-02-02T14:41:59;35.78;;;14.20;;
66628;SDS011;53532;53.084;6.352;2023-02-02T14:45:04;35.63;;;14.95;;
66628;SDS011;53532;53.084;6.352;2023-02-02T14:47:40;30.58;;;13.02;;
66628;SDS011;53532;53.084;6.352;2023-02-02T14:50:10;32.95;;;13.10;;
66628;SDS011;53532;53.084;6.352;2023-02-02T14:52:37;35.65;;;13.13;;
66628;SDS011;53532;53.084;6.352;2023-02-02T14:55:04;28.55;;;11.60;;
66628;SDS011;53532;53.084;6.352;2023-02-02T14:57:31;31.60;;;10.98;;
66628;SDS011;53532;53.084;6.352;2023-02-02T14:59:58;32.00;;;11.35;;